sensor_id;sensor_type;location;lat;lon;timestamp;P1;durP1;ratioP1;P2;durP2;ratioP2
55300;SDS011;58302;51.446;-2.000;2023-04-08T00:01:10;11.70;;;7.15;;
55300;SDS011;58302;51.446;-2.000;2023-04-08T00:03:36;12.88;;;7.18;;
55300;SDS011;58302;51.446;-2.000;2023-04-08T00:06:02;10.13;;;6.90;;
55300;SDS011;58302;51.446;-2.000;2023-04-08T00:08:29;8.70;;;6.32;;
55300;SDS011;58302;51.446;-2.000;2023-04-08T00:10:55;9.73;;;6.07;;
55300;SDS011;58302;51.446;-2.000;2023-04-08T00:13:21;8.88;;;6.30;;
55300;SDS011;58302;51.446;-2.000;2023-04-08T00:15:47;10.43;;;6.97;;
55300;SDS011;58302;51.446;-2.000;2023-04-08T00:18:13;14.18;;;8.43;;
55300;SDS011;58302;51.446;-2.000;2023-04-08T00:20:41;10.75;;;7.07;;
55300;SDS011;58302;51.446;-2.000;2023-04-08T00:23:07;12.38;;;6.85;;
55300;SDS011;58302;51.446;-2.000;2023-04-08T00:25:33;9.68;;;6.13;;
55300;SDS011;58302;51.446;-2.000;2023-04-08T00:27:59;9.60;;;6.30;;
55300;SDS011;58302;51.446;-2.000;2023-04-08T00:30:25;7.40;;;5.75;;
55300;SDS011;58302;51.446;-2.000;2023-04-08T00:32:52;9.02;;;6.13;;
55300;SDS011;58302;51.446;-2.000;2023-04-08T00:35:19;12.27;;;7.10;;
55300;SDS011;58302;51.446;-2.000;2023-04-08T00:37:44;10.02;;;5.80;;
55300;SDS011;58302;51.446;-2.000;2023-04-08T00:40:10;10.38;;;6.63;;
55300;SDS011;58302;51.446;-2.000;2023-04-08T00:42:37;9.48;;;6.88;;
55300;SDS011;58302;51.446;-2.000;2023-04-08T00:45:03;10.98;;;7.72;;
55300;SDS011;58302;51.446;-2.000;2023-04-08T00:47:30;8.98;;;6.90;;
55300;SDS011;58302;51.446;-2.000;2023-04-08T00:49:56;9.23;;;6.60;;
55300;SDS011;58302;51.446;-2.000;2023-04-08T00:52:22;11.50;;;7.80;;
55300;SDS011;58302;51.446;-2.000;2023-04-08T00:54:48;12.15;;;8.38;;
55300;SDS011;58302;51.446;-2.000;2023-04-08T00:57:17;9.88;;;7.35;;
55300;SDS011;58302;51.446;-2.000;2023-04-08T00:59:43;11.93;;;9.00;;
55300;SDS011;58302;51.446;-2.000;2023-04-08T01:05:08;13.80;;;8.85;;
55300;SDS011;58302;51.446;-2.000;2023-04-08T01:07:47;9.50;;;6.95;;
55300;SDS011;58302;51.446;-2.000;2023-04-08T01:10:16;10.20;;;7.18;;
55300;SDS011;58302;51.446;-2.000;2023-04-08T01:12:55;13.98;;;9.18;;
55300;SDS011;58302;51.446;-2.000;2023-04-08T01:15:24;10.73;;;8.32;;
55300;SDS011;58302;51.446;-2.000;2023-04-08T01:17:53;13.50;;;8.20;;
55300;SDS011;58302;51.446;-2.000;2023-04-08T01:20:21;11.90;;;7.53;;
55300;SDS011;58302;51.446;-2.000;2023-04-08T01:25:49;12.25;;;7.60;;
55300;SDS011;58302;51.446;-2.000;2023-04-08T01:28:17;13.63;;;8.40;;
55300;SDS011;58302;51.446;-2.000;2023-04-08T01:30:44;11.50;;;8.77;;
55300;SDS011;58302;51.446;-2.000;2023-04-08T01:33:12;12.07;;;8.02;;
55300;SDS011;58302;51.446;-2.000;2023-04-08T01:35:40;13.27;;;7.50;;
55300;SDS011;58302;51.446;-2.000;2023-04-08T01:38:07;10.20;;;7.63;;
55300;SDS011;58302;51.446;-2.000;2023-04-08T01:40:36;10.68;;;7.57;;
55300;SDS011;58302;51.446;-2.000;2023-04-08T01:43:04;12.80;;;8.23;;
55300;SDS011;58302;51.446;-2.000;2023-04-08T01:45:33;14.57;;;8.88;;
55300;SDS011;58302;51.446;-2.000;2023-04-08T01:47:59;18.60;;;9.45;;
55300;SDS011;58302;51.446;-2.000;2023-04-08T01:50:26;12.02;;;8.50;;
55300;SDS011;58302;51.446;-2.000;2023-04-08T01:52:53;9.50;;;7.55;;
55300;SDS011;58302;51.446;-2.000;2023-04-08T01:55:20;10.57;;;6.75;;
55300;SDS011;58302;51.446;-2.000;2023-04-08T01:57:48;10.43;;;6.90;;
55300;SDS011;58302;51.446;-2.000;2023-04-08T02:00:20;11.13;;;7.22;;
55300;SDS011;58302;51.446;-2.000;2023-04-08T02:02:49;22.20;;;10.93;;
55300;SDS011;58302;51.446;-2.000;2023-04-08T02:05:15;21.40;;;11.70;;
55300;SDS011;58302;51.446;-2.000;2023-04-08T02:07:41;12.73;;;8.50;;
55300;SDS011;58302;51.446;-2.000;2023-04-08T02:10:07;13.52;;;8.00;;
55300;SDS011;58302;51.446;-2.000;2023-04-08T02:12:34;11.05;;;7.10;;
55300;SDS011;58302;51.446;-2.000;2023-04-08T02:15:00;8.50;;;6.50;;
55300;SDS011;58302;51.446;-2.000;2023-04-08T02:22:52;13.18;;;8.70;;
55300;SDS011;58302;51.446;-2.000;2023-04-08T02:25:28;16.40;;;9.07;;
55300;SDS011;58302;51.446;-2.000;2023-04-08T02:27:55;9.68;;;7.25;;
55300;SDS011;58302;51.446;-2.000;2023-04-08T02:30:21;13.35;;;8.30;;
55300;SDS011;58302;51.446;-2.000;2023-04-08T02:32:49;12.20;;;7.25;;
55300;SDS011;58302;51.446;-2.000;2023-04-08T02:35:18;13.85;;;8.55;;
55300;SDS011;58302;51.446;-2.000;2023-04-08T02:37:45;12.07;;;7.82;;
55300;SDS011;58302;51.446;-2.000;2023-04-08T02:40:22;15.68;;;8.38;;
55300;SDS011;58302;51.446;-2.000;2023-04-08T02:42:48;11.57;;;8.27;;
55300;SDS011;58302;51.446;-2.000;2023-04-08T02:45:14;16.75;;;8.13;;
55300;SDS011;58302;51.446;-2.000;2023-04-08T02:47:40;13.65;;;8.82;;
55300;SDS011;58302;51.446;-2.000;2023-04-08T02:50:06;10.32;;;7.75;;
55300;SDS011;58302;51.446;-2.000;2023-04-08T02:52:32;13.52;;;7.78;;
55300;SDS011;58302;51.446;-2.000;2023-04-08T02:54:58;14.68;;;9.02;;
55300;SDS011;58302;51.446;-2.000;2023-04-08T02:57:24;14.30;;;8.07;;
55300;SDS011;58302;51.446;-2.000;2023-04-08T02:59:50;17.50;;;9.95;;
55300;SDS011;58302;51.446;-2.000;2023-04-08T03:02:16;12.57;;;7.60;;
55300;SDS011;58302;51.446;-2.000;2023-04-08T03:04:42;15.35;;;8.85;;
55300;SDS011;58302;51.446;-2.000;2023-04-08T03:07:08;11.45;;;8.02;;
55300;SDS011;58302;51.446;-2.000;2023-04-08T03:09:34;13.43;;;8.55;;
55300;SDS011;58302;51.446;-2.000;2023-04-08T03:12:00;15.88;;;8.95;;
55300;SDS011;58302;51.446;-2.000;2023-04-08T03:14:26;13.35;;;8.52;;
55300;SDS011;58302;51.446;-2.000;2023-04-08T03:16:52;11.00;;;8.07;;
55300;SDS011;58302;51.446;-2.000;2023-04-08T03:19:18;16.30;;;9.35;;
55300;SDS011;58302;51.446;-2.000;2023-04-08T03:21:44;15.05;;;8.35;;
55300;SDS011;58302;51.446;-2.000;2023-04-08T03:24:09;15.43;;;9.10;;
55300;SDS011;58302;51.446;-2.000;2023-04-08T03:26:35;14.70;;;9.60;;
55300;SDS011;58302;51.446;-2.000;2023-04-08T03:29:01;14.82;;;7.50;;
55300;SDS011;58302;51.446;-2.000;2023-04-08T03:31:27;14.47;;;8.37;;
55300;SDS011;58302;51.446;-2.000;2023-04-08T03:33:53;14.48;;;8.90;;
55300;SDS011;58302;51.446;-2.000;2023-04-08T03:36:20;11.85;;;8.43;;
55300;SDS011;58302;51.446;-2.000;2023-04-08T03:38:46;13.73;;;8.43;;
55300;SDS011;58302;51.446;-2.000;2023-04-08T03:41:12;13.10;;;8.75;;
55300;SDS011;58302;51.446;-2.000;2023-04-08T03:43:38;14.57;;;8.93;;
55300;SDS011;58302;51.446;-2.000;2023-04-08T03:46:04;16.77;;;9.98;;
55300;SDS011;58302;51.446;-2.000;2023-04-08T03:48:30;15.45;;;9.32;;
55300;SDS011;58302;51.446;-2.000;2023-04-08T03:50:56;13.80;;;9.23;;
55300;SDS011;58302;51.446;-2.000;2023-04-08T03:53:22;16.25;;;8.85;;
55300;SDS011;58302;51.446;-2.000;2023-04-08T03:55:48;18.03;;;10.00;;
55300;SDS011;58302;51.446;-2.000;2023-04-08T03:58:17;14.98;;;10.25;;
55300;SDS011;58302;51.446;-2.000;2023-04-08T04:00:43;16.37;;;10.50;;
55300;SDS011;58302;51.446;-2.000;2023-04-08T04:03:09;14.10;;;9.37;;
55300;SDS011;58302;51.446;-2.000;2023-04-08T04:05:37;15.33;;;10.00;;
55300;SDS011;58302;51.446;-2.000;2023-04-08T04:08:04;15.63;;;9.43;;
55300;SDS011;58302;51.446;-2.000;2023-04-08T04:10:30;17.40;;;10.48;;
55300;SDS011;58302;51.446;-2.000;2023-04-08T04:12:56;16.50;;;9.97;;
55300;SDS011;58302;51.446;-2.000;2023-04-08T04:15:22;12.63;;;9.23;;
55300;SDS011;58302;51.446;-2.000;2023-04-08T04:17:48;10.95;;;8.43;;
55300;SDS011;58302;51.446;-2.000;2023-04-08T04:20:15;16.83;;;9.65;;
55300;SDS011;58302;51.446;-2.000;2023-04-08T04:22:42;20.67;;;11.18;;
55300;SDS011;58302;51.446;-2.000;2023-04-08T04:25:08;19.58;;;11.50;;
55300;SDS011;58302;51.446;-2.000;2023-04-08T04:27:34;15.70;;;10.13;;
55300;SDS011;58302;51.446;-2.000;2023-04-08T04:30:01;20.70;;;11.10;;
55300;SDS011;58302;51.446;-2.000;2023-04-08T04:32:28;17.57;;;10.50;;
55300;SDS011;58302;51.446;-2.000;2023-04-08T04:34:54;19.83;;;10.68;;
55300;SDS011;58302;51.446;-2.000;2023-04-08T04:37:20;18.47;;;10.83;;
55300;SDS011;58302;51.446;-2.000;2023-04-08T04:39:46;19.97;;;11.57;;
55300;SDS011;58302;51.446;-2.000;2023-04-08T04:42:12;16.23;;;10.85;;
55300;SDS011;58302;51.446;-2.000;2023-04-08T04:44:38;17.10;;;10.13;;
55300;SDS011;58302;51.446;-2.000;2023-04-08T04:47:04;14.95;;;10.50;;
55300;SDS011;58302;51.446;-2.000;2023-04-08T04:49:30;20.17;;;9.90;;
55300;SDS011;58302;51.446;-2.000;2023-04-08T04:51:56;17.88;;;11.05;;
55300;SDS011;58302;51.446;-2.000;2023-04-08T04:54:22;20.65;;;12.20;;
55300;SDS011;58302;51.446;-2.000;2023-04-08T04:56:48;18.30;;;10.30;;
55300;SDS011;58302;51.446;-2.000;2023-04-08T04:59:14;17.93;;;10.70;;
55300;SDS011;58302;51.446;-2.000;2023-04-08T05:01:39;16.03;;;9.77;;
55300;SDS011;58302;51.446;-2.000;2023-04-08T05:04:06;17.70;;;9.15;;
55300;SDS011;58302;51.446;-2.000;2023-04-08T05:06:32;15.23;;;8.50;;
55300;SDS011;58302;51.446;-2.000;2023-04-08T05:08:58;17.67;;;10.07;;
55300;SDS011;58302;51.446;-2.000;2023-04-08T05:11:24;15.20;;;9.55;;
55300;SDS011;58302;51.446;-2.000;2023-04-08T05:13:50;14.48;;;8.85;;
55300;SDS011;58302;51.446;-2.000;2023-04-08T05:16:16;15.17;;;10.00;;
55300;SDS011;58302;51.446;-2.000;2023-04-08T05:18:42;11.60;;;8.45;;
55300;SDS011;58302;51.446;-2.000;2023-04-08T05:21:08;13.90;;;9.80;;
55300;SDS011;58302;51.446;-2.000;2023-04-08T05:23:34;15.57;;;8.67;;
55300;SDS011;58302;51.446;-2.000;2023-04-08T05:26:00;13.25;;;8.30;;
55300;SDS011;58302;51.446;-2.000;2023-04-08T05:28:26;11.35;;;7.25;;
55300;SDS011;58302;51.446;-2.000;2023-04-08T05:30:52;9.90;;;6.45;;
55300;SDS011;58302;51.446;-2.000;2023-04-08T05:33:19;13.10;;;7.15;;
55300;SDS011;58302;51.446;-2.000;2023-04-08T05:35:45;9.25;;;5.78;;
55300;SDS011;58302;51.446;-2.000;2023-04-08T05:38:11;14.80;;;7.13;;
55300;SDS011;58302;51.446;-2.000;2023-04-08T05:40:37;9.10;;;6.45;;
55300;SDS011;58302;51.446;-2.000;2023-04-08T05:43:03;10.68;;;6.75;;
55300;SDS011;58302;51.446;-2.000;2023-04-08T05:45:29;8.10;;;6.03;;
55300;SDS011;58302;51.446;-2.000;2023-04-08T05:47:55;11.60;;;6.88;;
55300;SDS011;58302;51.446;-2.000;2023-04-08T05:50:21;13.35;;;7.80;;
55300;SDS011;58302;51.446;-2.000;2023-04-08T05:52:47;15.38;;;8.18;;
55300;SDS011;58302;51.446;-2.000;2023-04-08T05:55:13;11.20;;;7.18;;
55300;SDS011;58302;51.446;-2.000;2023-04-08T05:57:39;9.75;;;6.40;;
55300;SDS011;58302;51.446;-2.000;2023-04-08T06:00:06;9.90;;;6.28;;
55300;SDS011;58302;51.446;-2.000;2023-04-08T06:02:34;11.10;;;6.78;;
55300;SDS011;58302;51.446;-2.000;2023-04-08T06:05:01;12.85;;;6.68;;
55300;SDS011;58302;51.446;-2.000;2023-04-08T06:07:31;15.00;;;7.68;;
55300;SDS011;58302;51.446;-2.000;2023-04-08T06:09:57;11.52;;;6.22;;
55300;SDS011;58302;51.446;-2.000;2023-04-08T06:12:23;10.75;;;6.30;;
55300;SDS011;58302;51.446;-2.000;2023-04-08T06:14:52;8.35;;;6.10;;
55300;SDS011;58302;51.446;-2.000;2023-04-08T06:17:20;12.60;;;6.25;;
55300;SDS011;58302;51.446;-2.000;2023-04-08T06:19:46;13.73;;;7.50;;
55300;SDS011;58302;51.446;-2.000;2023-04-08T06:22:12;15.40;;;6.75;;
55300;SDS011;58302;51.446;-2.000;2023-04-08T06:24:37;11.55;;;5.93;;
55300;SDS011;58302;51.446;-2.000;2023-04-08T06:27:03;10.77;;;6.00;;
55300;SDS011;58302;51.446;-2.000;2023-04-08T06:29:29;7.95;;;5.72;;
55300;SDS011;58302;51.446;-2.000;2023-04-08T06:31:55;7.20;;;5.35;;
55300;SDS011;58302;51.446;-2.000;2023-04-08T06:34:21;9.43;;;6.40;;
55300;SDS011;58302;51.446;-2.000;2023-04-08T06:36:47;7.80;;;6.05;;
55300;SDS011;58302;51.446;-2.000;2023-04-08T06:39:14;10.10;;;4.70;;
55300;SDS011;58302;51.446;-2.000;2023-04-08T06:41:41;10.80;;;4.57;;
55300;SDS011;58302;51.446;-2.000;2023-04-08T06:44:08;5.55;;;4.85;;
55300;SDS011;58302;51.446;-2.000;2023-04-08T06:46:34;7.53;;;4.85;;
55300;SDS011;58302;51.446;-2.000;2023-04-08T06:48:59;7.95;;;4.63;;
55300;SDS011;58302;51.446;-2.000;2023-04-08T06:51:25;7.00;;;4.85;;
55300;SDS011;58302;51.446;-2.000;2023-04-08T06:53:52;8.75;;;4.53;;
55300;SDS011;58302;51.446;-2.000;2023-04-08T06:56:18;7.65;;;4.28;;
55300;SDS011;58302;51.446;-2.000;2023-04-08T06:58:45;4.50;;;3.08;;
55300;SDS011;58302;51.446;-2.000;2023-04-08T07:01:11;4.82;;;3.13;;
55300;SDS011;58302;51.446;-2.000;2023-04-08T07:03:37;3.90;;;3.50;;
55300;SDS011;58302;51.446;-2.000;2023-04-08T07:06:03;4.55;;;3.28;;
55300;SDS011;58302;51.446;-2.000;2023-04-08T07:08:29;4.70;;;3.60;;
55300;SDS011;58302;51.446;-2.000;2023-04-08T07:10:55;5.65;;;3.30;;
55300;SDS011;58302;51.446;-2.000;2023-04-08T07:13:21;6.07;;;3.60;;
55300;SDS011;58302;51.446;-2.000;2023-04-08T07:15:48;4.47;;;2.75;;
55300;SDS011;58302;51.446;-2.000;2023-04-08T07:18:14;4.30;;;3.22;;
55300;SDS011;58302;51.446;-2.000;2023-04-08T07:20:40;4.43;;;2.90;;
55300;SDS011;58302;51.446;-2.000;2023-04-08T07:23:06;3.78;;;3.42;;
55300;SDS011;58302;51.446;-2.000;2023-04-08T07:25:32;7.43;;;3.25;;
55300;SDS011;58302;51.446;-2.000;2023-04-08T07:28:02;8.40;;;3.40;;
55300;SDS011;58302;51.446;-2.000;2023-04-08T07:30:28;5.22;;;3.35;;
55300;SDS011;58302;51.446;-2.000;2023-04-08T07:32:54;4.00;;;2.92;;
55300;SDS011;58302;51.446;-2.000;2023-04-08T07:35:20;5.15;;;3.25;;
55300;SDS011;58302;51.446;-2.000;2023-04-08T07:37:49;8.68;;;3.85;;
55300;SDS011;58302;51.446;-2.000;2023-04-08T07:40:18;4.75;;;3.15;;
55300;SDS011;58302;51.446;-2.000;2023-04-08T07:42:45;6.35;;;3.47;;
55300;SDS011;58302;51.446;-2.000;2023-04-08T07:45:11;4.82;;;3.20;;
55300;SDS011;58302;51.446;-2.000;2023-04-08T07:47:37;3.17;;;2.53;;
55300;SDS011;58302;51.446;-2.000;2023-04-08T07:50:03;3.83;;;2.80;;
55300;SDS011;58302;51.446;-2.000;2023-04-08T07:52:29;8.20;;;3.65;;
55300;SDS011;58302;51.446;-2.000;2023-04-08T07:54:55;3.75;;;2.97;;
55300;SDS011;58302;51.446;-2.000;2023-04-08T07:57:21;5.60;;;3.10;;
55300;SDS011;58302;51.446;-2.000;2023-04-08T07:59:47;6.13;;;3.22;;
55300;SDS011;58302;51.446;-2.000;2023-04-08T08:02:13;6.32;;;3.13;;
55300;SDS011;58302;51.446;-2.000;2023-04-08T08:04:40;3.75;;;3.10;;
55300;SDS011;58302;51.446;-2.000;2023-04-08T08:07:05;4.95;;;2.88;;
55300;SDS011;58302;51.446;-2.000;2023-04-08T08:09:31;4.82;;;2.55;;
55300;SDS011;58302;51.446;-2.000;2023-04-08T08:11:57;3.20;;;2.90;;
55300;SDS011;58302;51.446;-2.000;2023-04-08T08:14:23;5.05;;;2.60;;
55300;SDS011;58302;51.446;-2.000;2023-04-08T08:16:51;5.35;;;2.90;;
55300;SDS011;58302;51.446;-2.000;2023-04-08T08:19:19;4.85;;;2.80;;
55300;SDS011;58302;51.446;-2.000;2023-04-08T08:21:48;3.63;;;2.30;;
55300;SDS011;58302;51.446;-2.000;2023-04-08T08:24:14;4.03;;;2.60;;
55300;SDS011;58302;51.446;-2.000;2023-04-08T08:26:41;3.75;;;2.63;;
55300;SDS011;58302;51.446;-2.000;2023-04-08T08:29:09;4.65;;;2.75;;
55300;SDS011;58302;51.446;-2.000;2023-04-08T08:31:35;2.60;;;2.30;;
55300;SDS011;58302;51.446;-2.000;2023-04-08T08:34:01;6.20;;;2.78;;
55300;SDS011;58302;51.446;-2.000;2023-04-08T08:36:27;2.95;;;2.65;;
55300;SDS011;58302;51.446;-2.000;2023-04-08T08:38:53;4.28;;;3.35;;
55300;SDS011;58302;51.446;-2.000;2023-04-08T08:41:20;5.03;;;3.22;;
55300;SDS011;58302;51.446;-2.000;2023-04-08T08:43:46;4.13;;;3.40;;
55300;SDS011;58302;51.446;-2.000;2023-04-08T08:46:14;5.57;;;3.42;;
55300;SDS011;58302;51.446;-2.000;2023-04-08T08:48:41;6.05;;;3.42;;
55300;SDS011;58302;51.446;-2.000;2023-04-08T08:51:08;4.72;;;3.13;;
55300;SDS011;58302;51.446;-2.000;2023-04-08T08:53:35;4.82;;;3.67;;
55300;SDS011;58302;51.446;-2.000;2023-04-08T08:56:01;5.50;;;3.42;;
55300;SDS011;58302;51.446;-2.000;2023-04-08T08:58:27;4.68;;;3.55;;
55300;SDS011;58302;51.446;-2.000;2023-04-08T09:00:53;9.90;;;3.92;;
55300;SDS011;58302;51.446;-2.000;2023-04-08T09:03:20;5.72;;;3.88;;
55300;SDS011;58302;51.446;-2.000;2023-04-08T09:05:53;5.88;;;4.40;;
55300;SDS011;58302;51.446;-2.000;2023-04-08T09:08:25;5.22;;;4.50;;
55300;SDS011;58302;51.446;-2.000;2023-04-08T09:11:09;5.50;;;3.95;;
55300;SDS011;58302;51.446;-2.000;2023-04-08T09:13:38;5.05;;;4.00;;
55300;SDS011;58302;51.446;-2.000;2023-04-08T09:16:11;5.35;;;4.72;;
55300;SDS011;58302;51.446;-2.000;2023-04-08T09:18:41;5.00;;;3.65;;
55300;SDS011;58302;51.446;-2.000;2023-04-08T09:21:09;7.10;;;4.82;;
55300;SDS011;58302;51.446;-2.000;2023-04-08T09:26:10;4.97;;;4.50;;
55300;SDS011;58302;51.446;-2.000;2023-04-08T09:28:57;6.70;;;4.55;;
55300;SDS011;58302;51.446;-2.000;2023-04-08T09:31:40;6.97;;;4.53;;
55300;SDS011;58302;51.446;-2.000;2023-04-08T09:34:10;5.80;;;4.10;;
55300;SDS011;58302;51.446;-2.000;2023-04-08T09:36:41;4.28;;;3.80;;
55300;SDS011;58302;51.446;-2.000;2023-04-08T09:39:07;4.57;;;4.03;;
55300;SDS011;58302;51.446;-2.000;2023-04-08T09:41:37;5.13;;;4.25;;
55300;SDS011;58302;51.446;-2.000;2023-04-08T09:44:04;4.53;;;3.40;;
55300;SDS011;58302;51.446;-2.000;2023-04-08T09:46:32;4.07;;;3.53;;
55300;SDS011;58302;51.446;-2.000;2023-04-08T09:49:25;4.57;;;3.45;;
55300;SDS011;58302;51.446;-2.000;2023-04-08T09:51:55;6.22;;;3.10;;
55300;SDS011;58302;51.446;-2.000;2023-04-08T09:54:37;4.45;;;3.67;;
55300;SDS011;58302;51.446;-2.000;2023-04-08T10:03:01;4.82;;;3.00;;
55300;SDS011;58302;51.446;-2.000;2023-04-08T10:05:36;5.30;;;3.00;;
55300;SDS011;58302;51.446;-2.000;2023-04-08T10:08:05;4.40;;;3.42;;
55300;SDS011;58302;51.446;-2.000;2023-04-08T10:10:35;4.53;;;2.70;;
55300;SDS011;58302;51.446;-2.000;2023-04-08T10:13:04;2.88;;;2.28;;
55300;SDS011;58302;51.446;-2.000;2023-04-08T10:15:35;3.67;;;2.15;;
55300;SDS011;58302;51.446;-2.000;2023-04-08T10:23:08;4.05;;;2.25;;
55300;SDS011;58302;51.446;-2.000;2023-04-08T10:25:38;3.25;;;1.95;;
55300;SDS011;58302;51.446;-2.000;2023-04-08T10:33:13;2.70;;;1.95;;
55300;SDS011;58302;51.446;-2.000;2023-04-08T10:35:48;3.95;;;2.88;;
55300;SDS011;58302;51.446;-2.000;2023-04-08T10:38:17;4.50;;;2.70;;
55300;SDS011;58302;51.446;-2.000;2023-04-08T10:40:44;5.60;;;2.63;;
55300;SDS011;58302;51.446;-2.000;2023-04-08T10:43:11;3.78;;;2.50;;
55300;SDS011;58302;51.446;-2.000;2023-04-08T10:45:38;3.10;;;2.42;;
55300;SDS011;58302;51.446;-2.000;2023-04-08T10:48:18;3.40;;;2.78;;
55300;SDS011;58302;51.446;-2.000;2023-04-08T10:51:05;3.42;;;2.83;;
55300;SDS011;58302;51.446;-2.000;2023-04-08T10:53:31;4.80;;;3.20;;
55300;SDS011;58302;51.446;-2.000;2023-04-08T10:56:02;3.28;;;2.88;;
55300;SDS011;58302;51.446;-2.000;2023-04-08T10:58:30;5.28;;;2.65;;
55300;SDS011;58302;51.446;-2.000;2023-04-08T11:01:06;4.00;;;2.83;;
55300;SDS011;58302;51.446;-2.000;2023-04-08T11:03:32;4.90;;;3.15;;
55300;SDS011;58302;51.446;-2.000;2023-04-08T11:05:59;4.35;;;2.90;;
55300;SDS011;58302;51.446;-2.000;2023-04-08T11:08:29;3.15;;;2.70;;
55300;SDS011;58302;51.446;-2.000;2023-04-08T11:10:57;8.15;;;3.75;;
55300;SDS011;58302;51.446;-2.000;2023-04-08T11:13:23;4.95;;;3.45;;
55300;SDS011;58302;51.446;-2.000;2023-04-08T11:15:50;3.33;;;2.85;;
55300;SDS011;58302;51.446;-2.000;2023-04-08T11:18:16;4.72;;;3.08;;
55300;SDS011;58302;51.446;-2.000;2023-04-08T11:20:43;6.20;;;3.38;;
55300;SDS011;58302;51.446;-2.000;2023-04-08T11:23:12;4.35;;;3.08;;
55300;SDS011;58302;51.446;-2.000;2023-04-08T11:25:39;5.32;;;2.72;;
55300;SDS011;58302;51.446;-2.000;2023-04-08T11:28:07;6.18;;;3.13;;
55300;SDS011;58302;51.446;-2.000;2023-04-08T11:30:33;4.95;;;3.10;;
55300;SDS011;58302;51.446;-2.000;2023-04-08T11:32:59;4.03;;;2.58;;
55300;SDS011;58302;51.446;-2.000;2023-04-08T11:35:29;3.55;;;3.25;;
55300;SDS011;58302;51.446;-2.000;2023-04-08T11:37:58;4.22;;;2.30;;
55300;SDS011;58302;51.446;-2.000;2023-04-08T11:40:24;4.10;;;2.40;;
55300;SDS011;58302;51.446;-2.000;2023-04-08T11:42:51;3.10;;;2.10;;
55300;SDS011;58302;51.446;-2.000;2023-04-08T11:45:18;3.60;;;1.98;;
55300;SDS011;58302;51.446;-2.000;2023-04-08T11:47:46;2.72;;;1.92;;
55300;SDS011;58302;51.446;-2.000;2023-04-08T11:50:22;3.13;;;1.90;;
55300;SDS011;58302;51.446;-2.000;2023-04-08T11:52:49;2.47;;;2.20;;
55300;SDS011;58302;51.446;-2.000;2023-04-08T11:55:31;4.40;;;2.35;;
55300;SDS011;58302;51.446;-2.000;2023-04-08T11:58:01;3.50;;;2.30;;
55300;SDS011;58302;51.446;-2.000;2023-04-08T12:00:29;3.42;;;2.38;;
55300;SDS011;58302;51.446;-2.000;2023-04-08T12:02:55;3.92;;;2.70;;
55300;SDS011;58302;51.446;-2.000;2023-04-08T12:05:21;2.90;;;1.98;;
55300;SDS011;58302;51.446;-2.000;2023-04-08T12:07:47;2.85;;;1.92;;
55300;SDS011;58302;51.446;-2.000;2023-04-08T12:10:13;2.58;;;2.00;;
55300;SDS011;58302;51.446;-2.000;2023-04-08T12:12:39;5.18;;;2.75;;
55300;SDS011;58302;51.446;-2.000;2023-04-08T12:15:06;3.17;;;2.55;;
55300;SDS011;58302;51.446;-2.000;2023-04-08T12:17:33;3.85;;;2.70;;
55300;SDS011;58302;51.446;-2.000;2023-04-08T12:19:59;4.07;;;2.10;;
55300;SDS011;58302;51.446;-2.000;2023-04-08T12:22:25;5.47;;;2.50;;
55300;SDS011;58302;51.446;-2.000;2023-04-08T12:24:52;3.35;;;2.05;;
55300;SDS011;58302;51.446;-2.000;2023-04-08T12:27:18;3.70;;;2.40;;
55300;SDS011;58302;51.446;-2.000;2023-04-08T12:29:44;4.57;;;2.47;;
55300;SDS011;58302;51.446;-2.000;2023-04-08T12:32:10;3.40;;;2.47;;
55300;SDS011;58302;51.446;-2.000;2023-04-08T12:34:37;5.40;;;3.40;;
55300;SDS011;58302;51.446;-2.000;2023-04-08T12:37:03;3.60;;;2.75;;
55300;SDS011;58302;51.446;-2.000;2023-04-08T12:39:28;4.13;;;2.67;;
55300;SDS011;58302;51.446;-2.000;2023-04-08T12:41:54;4.60;;;2.70;;
55300;SDS011;58302;51.446;-2.000;2023-04-08T12:44:21;3.97;;;2.80;;
55300;SDS011;58302;51.446;-2.000;2023-04-08T12:46:47;3.90;;;2.60;;
55300;SDS011;58302;51.446;-2.000;2023-04-08T12:49:13;4.35;;;2.92;;
55300;SDS011;58302;51.446;-2.000;2023-04-08T12:51:39;3.10;;;2.70;;
55300;SDS011;58302;51.446;-2.000;2023-04-08T12:54:05;6.00;;;3.22;;
55300;SDS011;58302;51.446;-2.000;2023-04-08T12:56:31;6.30;;;3.20;;
55300;SDS011;58302;51.446;-2.000;2023-04-08T12:58:58;5.57;;;2.50;;
55300;SDS011;58302;51.446;-2.000;2023-04-08T13:01:25;4.72;;;2.40;;
55300;SDS011;58302;51.446;-2.000;2023-04-08T13:03:51;3.30;;;2.20;;
55300;SDS011;58302;51.446;-2.000;2023-04-08T13:06:17;3.22;;;2.47;;
55300;SDS011;58302;51.446;-2.000;2023-04-08T13:08:43;3.40;;;3.00;;
55300;SDS011;58302;51.446;-2.000;2023-04-08T13:11:09;3.03;;;2.35;;
55300;SDS011;58302;51.446;-2.000;2023-04-08T13:13:35;4.28;;;2.40;;
55300;SDS011;58302;51.446;-2.000;2023-04-08T13:16:02;4.60;;;2.30;;
55300;SDS011;58302;51.446;-2.000;2023-04-08T13:18:28;2.17;;;1.88;;
55300;SDS011;58302;51.446;-2.000;2023-04-08T13:20:54;3.10;;;2.15;;
55300;SDS011;58302;51.446;-2.000;2023-04-08T13:23:20;4.38;;;2.13;;
55300;SDS011;58302;51.446;-2.000;2023-04-08T13:25:46;4.40;;;2.67;;
55300;SDS011;58302;51.446;-2.000;2023-04-08T13:28:12;3.55;;;2.10;;
55300;SDS011;58302;51.446;-2.000;2023-04-08T13:30:38;2.67;;;1.77;;
55300;SDS011;58302;51.446;-2.000;2023-04-08T13:33:05;3.58;;;2.05;;
55300;SDS011;58302;51.446;-2.000;2023-04-08T13:35:31;3.65;;;2.38;;
55300;SDS011;58302;51.446;-2.000;2023-04-08T13:37:57;2.88;;;2.10;;
55300;SDS011;58302;51.446;-2.000;2023-04-08T13:40:23;3.38;;;2.65;;
55300;SDS011;58302;51.446;-2.000;2023-04-08T13:42:49;4.63;;;2.90;;
55300;SDS011;58302;51.446;-2.000;2023-04-08T13:45:16;5.63;;;3.20;;
55300;SDS011;58302;51.446;-2.000;2023-04-08T13:47:42;3.42;;;2.80;;
55300;SDS011;58302;51.446;-2.000;2023-04-08T13:50:08;3.75;;;2.28;;
55300;SDS011;58302;51.446;-2.000;2023-04-08T13:52:34;3.03;;;2.28;;
55300;SDS011;58302;51.446;-2.000;2023-04-08T13:55:00;5.25;;;2.50;;
55300;SDS011;58302;51.446;-2.000;2023-04-08T13:57:26;3.80;;;2.38;;
55300;SDS011;58302;51.446;-2.000;2023-04-08T13:59:52;4.43;;;2.72;;
55300;SDS011;58302;51.446;-2.000;2023-04-08T14:02:18;4.43;;;2.83;;
55300;SDS011;58302;51.446;-2.000;2023-04-08T14:04:44;4.88;;;2.70;;
55300;SDS011;58302;51.446;-2.000;2023-04-08T14:07:13;4.63;;;2.78;;
55300;SDS011;58302;51.446;-2.000;2023-04-08T14:09:39;6.00;;;3.05;;
55300;SDS011;58302;51.446;-2.000;2023-04-08T14:12:06;3.05;;;2.75;;
55300;SDS011;58302;51.446;-2.000;2023-04-08T14:14:32;4.55;;;2.40;;
55300;SDS011;58302;51.446;-2.000;2023-04-08T14:16:58;4.72;;;2.40;;
55300;SDS011;58302;51.446;-2.000;2023-04-08T14:19:23;3.78;;;2.20;;
55300;SDS011;58302;51.446;-2.000;2023-04-08T14:21:49;3.00;;;2.22;;
55300;SDS011;58302;51.446;-2.000;2023-04-08T14:24:15;4.00;;;2.50;;
55300;SDS011;58302;51.446;-2.000;2023-04-08T14:26:41;2.50;;;2.30;;
55300;SDS011;58302;51.446;-2.000;2023-04-08T14:29:07;4.80;;;2.90;;
55300;SDS011;58302;51.446;-2.000;2023-04-08T14:31:33;3.63;;;2.33;;
55300;SDS011;58302;51.446;-2.000;2023-04-08T14:34:00;5.93;;;2.72;;
55300;SDS011;58302;51.446;-2.000;2023-04-08T14:36:27;4.80;;;3.30;;
55300;SDS011;58302;51.446;-2.000;2023-04-08T14:38:53;4.55;;;2.70;;
55300;SDS011;58302;51.446;-2.000;2023-04-08T14:41:20;4.30;;;2.13;;
55300;SDS011;58302;51.446;-2.000;2023-04-08T14:43:47;3.92;;;2.72;;
55300;SDS011;58302;51.446;-2.000;2023-04-08T14:46:13;3.30;;;2.65;;
55300;SDS011;58302;51.446;-2.000;2023-04-08T14:48:39;3.90;;;3.10;;
55300;SDS011;58302;51.446;-2.000;2023-04-08T14:51:05;4.40;;;2.63;;
55300;SDS011;58302;51.446;-2.000;2023-04-08T14:53:32;3.65;;;2.30;;
55300;SDS011;58302;51.446;-2.000;2023-04-08T14:55:58;3.30;;;3.00;;
55300;SDS011;58302;51.446;-2.000;2023-04-08T14:58:24;3.33;;;2.30;;